sensor_id;sensor_type;location;lat;lon;timestamp;pressure;altitude;pressure_sealevel;temperature;humidity
45247;BME280;31529;51.158;7.354;2023-07-08T00:00:11;98133.66;;;23.25;39.28
45247;BME280;31529;51.158;7.354;2023-07-08T00:00:44;98129.41;;;23.24;39.19
45247;BME280;31529;51.158;7.354;2023-07-08T00:01:19;98125.09;;;23.23;39.11
45247;BME280;31529;51.158;7.354;2023-07-08T00:01:51;98121.59;;;23.23;39.51
45247;BME280;31529;51.158;7.354;2023-07-08T00:02:22;98128.97;;;23.22;39.26
45247;BME280;31529;51.158;7.354;2023-07-08T00:02:53;98132.81;;;23.21;39.31
45247;BME280;31529;51.158;7.354;2023-07-08T00:03:24;98126.59;;;23.21;39.29
45247;BME280;31529;51.158;7.354;2023-07-08T00:03:55;98128.91;;;23.18;39.26
45247;BME280;31529;51.158;7.354;2023-07-08T00:04:27;98126.53;;;23.17;39.48
45247;BME280;31529;51.158;7.354;2023-07-08T00:04:58;98123.03;;;23.16;39.49
45247;BME280;31529;51.158;7.354;2023-07-08T00:05:29;98124.19;;;23.15;39.30
45247;BME280;31529;51.158;7.354;2023-07-08T00:06:00;98123.41;;;23.15;39.35
45247;BME280;31529;51.158;7.354;2023-07-08T00:06:31;98132.34;;;23.15;39.24
45247;BME280;31529;51.158;7.354;2023-07-08T00:07:02;98120.25;;;23.13;39.22
45247;BME280;31529;51.158;7.354;2023-07-08T00:07:34;98117.53;;;23.13;39.43
45247;BME280;31529;51.158;7.354;2023-07-08T00:08:05;98122.97;;;23.13;39.48
45247;BME280;31529;51.158;7.354;2023-07-08T00:08:36;98115.16;;;23.11;39.32
45247;BME280;31529;51.158;7.354;2023-07-08T00:09:09;98113.22;;;23.12;39.36
45247;BME280;31529;51.158;7.354;2023-07-08T00:09:42;98119.84;;;23.11;39.37
45247;BME280;31529;51.158;7.354;2023-07-08T00:10:15;98120.97;;;23.10;39.69
45247;BME280;31529;51.158;7.354;2023-07-08T00:10:48;98118.25;;;23.10;39.60
45247;BME280;31529;51.158;7.354;2023-07-08T00:11:19;98120.19;;;23.09;39.41
45247;BME280;31529;51.158;7.354;2023-07-08T00:11:50;98115.88;;;23.08;39.48
45247;BME280;31529;51.158;7.354;2023-07-08T00:12:22;98117.81;;;23.08;39.55
45247;BME280;31529;51.158;7.354;2023-07-08T00:12:54;98112.38;;;23.08;39.58
45247;BME280;31529;51.158;7.354;2023-07-08T00:13:27;98113.50;;;23.07;39.64
45247;BME280;31529;51.158;7.354;2023-07-08T00:13:59;98111.97;;;23.06;39.55
45247;BME280;31529;51.158;7.354;2023-07-08T00:14:30;98110.78;;;23.07;39.26
45247;BME280;31529;51.158;7.354;2023-07-08T00:15:01;98114.69;;;23.06;39.40
45247;BME280;31529;51.158;7.354;2023-07-08T00:15:32;98112.31;;;23.04;39.64
45247;BME280;31529;51.158;7.354;2023-07-08T00:16:03;98107.66;;;23.05;39.53
45247;BME280;31529;51.158;7.354;2023-07-08T00:16:35;98107.66;;;23.05;39.47
45247;BME280;31529;51.158;7.354;2023-07-08T00:17:12;98115.03;;;23.04;39.49
45247;BME280;31529;51.158;7.354;2023-07-08T00:17:43;98112.31;;;23.04;39.43
45247;BME280;31529;51.158;7.354;2023-07-08T00:18:15;98115.38;;;23.03;39.42
45247;BME280;31529;51.158;7.354;2023-07-08T00:18:47;98106.78;;;23.00;39.63
45247;BME280;31529;51.158;7.354;2023-07-08T00:19:19;98104.84;;;23.01;39.49
45247;BME280;31529;51.158;7.354;2023-07-08T00:19:51;98111.44;;;23.00;39.58
45247;BME280;31529;51.158;7.354;2023-07-08T00:21:14;98112.22;;;23.00;39.62
45247;BME280;31529;51.158;7.354;2023-07-08T00:21:47;98110.66;;;22.99;39.65
45247;BME280;31529;51.158;7.354;2023-07-08T00:22:18;98109.06;;;22.98;39.68
45247;BME280;31529;51.158;7.354;2023-07-08T00:22:49;98110.25;;;22.97;39.63
45247;BME280;31529;51.158;7.354;2023-07-08T00:23:20;98107.53;;;22.97;39.79
45247;BME280;31529;51.158;7.354;2023-07-08T00:23:54;98104.00;;;22.97;39.40
45247;BME280;31529;51.158;7.354;2023-07-08T00:24:26;98111.38;;;22.96;39.79
45247;BME280;31529;51.158;7.354;2023-07-08T00:24:57;98106.72;;;22.97;39.68
45247;BME280;31529;51.158;7.354;2023-07-08T00:25:28;98105.94;;;22.96;39.48
45247;BME280;31529;51.158;7.354;2023-07-08T00:26:00;98100.50;;;22.96;39.55
45247;BME280;31529;51.158;7.354;2023-07-08T00:26:32;98106.28;;;22.95;39.68
45247;BME280;31529;51.158;7.354;2023-07-08T00:27:03;98101.63;;;22.95;39.63
45247;BME280;31529;51.158;7.354;2023-07-08T00:27:34;98108.22;;;22.94;39.80
45247;BME280;31529;51.158;7.354;2023-07-08T00:28:09;98105.50;;;22.94;39.54
45247;BME280;31529;51.158;7.354;2023-07-08T00:28:45;98103.56;;;22.95;39.80
45247;BME280;31529;51.158;7.354;2023-07-08T00:29:16;98104.72;;;22.94;39.80
45247;BME280;31529;51.158;7.354;2023-07-08T00:29:47;98105.09;;;22.92;39.84
45247;BME280;31529;51.158;7.354;2023-07-08T00:30:21;98103.16;;;22.93;39.84
45247;BME280;31529;51.158;7.354;2023-07-08T00:30:52;98100.78;;;22.91;39.84
45247;BME280;31529;51.158;7.354;2023-07-08T00:31:24;98103.50;;;22.91;39.67
45247;BME280;31529;51.158;7.354;2023-07-08T00:31:56;98101.94;;;22.90;39.67
45247;BME280;31529;51.158;7.354;2023-07-08T00:32:27;98103.50;;;22.91;39.41
45247;BME280;31529;51.158;7.354;2023-07-08T00:32:58;98101.94;;;22.90;39.57
45247;BME280;31529;51.158;7.354;2023-07-08T00:33:30;98103.06;;;22.89;39.84
45247;BME280;31529;51.158;7.354;2023-07-08T00:34:01;98102.31;;;22.89;39.87
45247;BME280;31529;51.158;7.354;2023-07-08T00:34:33;98104.25;;;22.88;39.56
45247;BME280;31529;51.158;7.354;2023-07-08T00:35:05;98112.41;;;22.88;39.44
45247;BME280;31529;51.158;7.354;2023-07-08T00:35:37;98103.44;;;22.88;39.77
45247;BME280;31529;51.158;7.354;2023-07-08T00:36:11;98113.53;;;22.87;39.74
45247;BME280;31529;51.158;7.354;2023-07-08T00:36:43;98118.97;;;22.87;39.63
45247;BME280;31529;51.158;7.354;2023-07-08T00:37:14;98111.97;;;22.86;39.87
45247;BME280;31529;51.158;7.354;2023-07-08T00:37:45;98025.88;;;22.32;39.89
45247;BME280;31529;51.158;7.354;2023-07-08T00:38:19;98106.53;;;22.86;39.64
45247;BME280;31529;51.158;7.354;2023-07-08T00:38:57;98111.16;;;22.86;39.74
45247;BME280;31529;51.158;7.354;2023-07-08T00:39:28;98111.56;;;22.84;40.07
45247;BME280;31529;51.158;7.354;2023-07-08T00:39:59;98097.16;;;22.84;39.83
45247;BME280;31529;51.158;7.354;2023-07-08T00:40:31;98105.31;;;22.84;39.90
45247;BME280;31529;51.158;7.354;2023-07-08T00:41:46;98104.88;;;22.81;39.74
45247;BME280;31529;51.158;7.354;2023-07-08T00:42:19;98102.53;;;22.80;39.96
45247;BME280;31529;51.158;7.354;2023-07-08T00:42:54;98102.53;;;22.80;39.88
45247;BME280;31529;51.158;7.354;2023-07-08T00:43:48;98104.03;;;22.77;39.99
45247;BME280;31529;51.158;7.354;2023-07-08T00:44:19;98100.91;;;22.75;39.93
45247;BME280;31529;51.158;7.354;2023-07-08T00:44:50;98094.66;;;22.75;39.85
45247;BME280;31529;51.158;7.354;2023-07-08T00:45:28;98098.53;;;22.74;40.11
45247;BME280;31529;51.158;7.354;2023-07-08T00:46:15;98096.16;;;22.72;40.16
45247;BME280;31529;51.158;7.354;2023-07-08T00:46:50;98103.53;;;22.72;40.01
45247;BME280;31529;51.158;7.354;2023-07-08T00:47:32;98093.03;;;22.70;39.78
45247;BME280;31529;51.158;7.354;2023-07-08T00:48:07;98100.41;;;22.70;40.08
45247;BME280;31529;51.158;7.354;2023-07-08T00:48:40;98094.19;;;22.69;40.02
45247;BME280;31529;51.158;7.354;2023-07-08T00:50:11;98101.53;;;22.69;39.90
45247;BME280;31529;51.158;7.354;2023-07-08T00:50:42;98103.91;;;22.70;39.82
45247;BME280;31529;51.158;7.354;2023-07-08T00:51:22;98097.69;;;22.70;39.72
45247;BME280;31529;51.158;7.354;2023-07-08T00:51:53;98098.47;;;22.70;39.87
45247;BME280;31529;51.158;7.354;2023-07-08T00:52:26;98092.25;;;22.70;39.79
45247;BME280;31529;51.158;7.354;2023-07-08T00:53:43;98096.91;;;22.69;39.82
45247;BME280;31529;51.158;7.354;2023-07-08T00:53:54;98099.63;;;22.69;39.81
45247;BME280;31529;51.158;7.354;2023-07-08T00:54:25;98099.63;;;22.69;39.82
45247;BME280;31529;51.158;7.354;2023-07-08T00:55:01;98100.75;;;22.68;39.79
45247;BME280;31529;51.158;7.354;2023-07-08T00:55:36;98094.53;;;22.68;39.71
45247;BME280;31529;51.158;7.354;2023-07-08T00:56:21;98095.31;;;22.68;39.82
45247;BME280;31529;51.158;7.354;2023-07-08T00:56:57;98091.81;;;22.68;39.66
45247;BME280;31529;51.158;7.354;2023-07-08T00:57:33;98091.03;;;22.67;39.73
45247;BME280;31529;51.158;7.354;2023-07-08T00:58:07;98089.88;;;22.68;39.74
45247;BME280;31529;51.158;7.354;2023-07-08T00:58:43;98088.31;;;22.67;39.62
45247;BME280;31529;51.158;7.354;2023-07-08T00:59:21;98097.25;;;22.68;39.74
45247;BME280;31529;51.158;7.354;2023-07-08T01:00:09;98089.09;;;22.68;39.66
45247;BME280;31529;51.158;7.354;2023-07-08T01:00:43;98099.97;;;22.68;39.83
45247;BME280;31529;51.158;7.354;2023-07-08T01:01:14;98092.94;;;22.67;39.82
45247;BME280;31529;51.158;7.354;2023-07-08T01:01:45;98031.06;;;22.21;39.85
45247;BME280;31529;51.158;7.354;2023-07-08T01:02:18;98092.94;;;22.67;39.87
45247;BME280;31529;51.158;7.354;2023-07-08T01:02:52;98092.16;;;22.66;39.49
45247;BME280;31529;51.158;7.354;2023-07-08T01:03:27;98090.63;;;22.65;39.83
45247;BME280;31529;51.158;7.354;2023-07-08T01:04:00;98090.63;;;22.65;39.78
45247;BME280;31529;51.158;7.354;2023-07-08T01:04:44;98088.25;;;22.64;39.86
45247;BME280;31529;51.158;7.354;2023-07-08T01:05:23;98094.47;;;22.64;39.67
45247;BME280;31529;51.158;7.354;2023-07-08T01:05:57;98081.22;;;22.63;39.77
45247;BME280;31529;51.158;7.354;2023-07-08T01:06:33;98087.44;;;22.63;39.89
45247;BME280;31529;51.158;7.354;2023-07-08T01:07:10;98080.78;;;22.60;39.91
45247;BME280;31529;51.158;7.354;2023-07-08T01:07:42;98083.53;;;22.60;39.64
45247;BME280;31529;51.158;7.354;2023-07-08T01:08:19;98083.53;;;22.60;39.69
45247;BME280;31529;51.158;7.354;2023-07-08T01:08:59;98075.72;;;22.59;39.72
45247;BME280;31529;51.158;7.354;2023-07-08T01:09:34;98075.72;;;22.59;39.70
45247;BME280;31529;51.158;7.354;2023-07-08T01:10:12;98081.16;;;22.59;39.62
45247;BME280;31529;51.158;7.354;2023-07-08T01:10:49;98081.16;;;22.59;39.72
45247;BME280;31529;51.158;7.354;2023-07-08T01:11:25;98077.28;;;22.60;39.87
45247;BME280;31529;51.158;7.354;2023-07-08T01:11:57;98079.25;;;22.59;39.67
45247;BME280;31529;51.158;7.354;2023-07-08T01:12:36;98076.53;;;22.59;39.70
45247;BME280;31529;51.158;7.354;2023-07-08T01:13:12;98080.38;;;22.58;39.66
45247;BME280;31529;51.158;7.354;2023-07-08T01:13:45;98082.75;;;22.60;39.66
45247;BME280;31529;51.158;7.354;2023-07-08T01:14:17;98081.16;;;22.59;39.87
45247;BME280;31529;51.158;7.354;2023-07-08T01:14:51;98080.38;;;22.58;39.89
45247;BME280;31529;51.158;7.354;2023-07-08T01:15:26;98078.78;;;22.57;39.92
45247;BME280;31529;51.158;7.354;2023-07-08T01:16:03;98077.22;;;22.56;39.81
45247;BME280;31529;51.158;7.354;2023-07-08T01:16:36;98076.06;;;22.57;39.57
45247;BME280;31529;51.158;7.354;2023-07-08T01:17:08;98076.06;;;22.57;39.58
45247;BME280;31529;51.158;7.354;2023-07-08T01:17:44;98004.84;;;22.09;39.76
45247;BME280;31529;51.158;7.354;2023-07-08T01:18:17;98078.00;;;22.57;39.65
45247;BME280;31529;51.158;7.354;2023-07-08T01:18:55;98070.63;;;22.57;39.80
45247;BME280;31529;51.158;7.354;2023-07-08T01:19:26;98075.28;;;22.57;39.82
45247;BME280;31529;51.158;7.354;2023-07-08T01:20:05;98076.88;;;22.58;39.61
45247;BME280;31529;51.158;7.354;2023-07-08T01:20:37;98074.16;;;22.58;39.80
45247;BME280;31529;51.158;7.354;2023-07-08T01:21:30;98083.44;;;22.57;39.74
45247;BME280;31529;51.158;7.354;2023-07-08T01:22:05;98078.78;;;22.57;39.53
45247;BME280;31529;51.158;7.354;2023-07-08T01:22:37;98073.34;;;22.57;39.79
45247;BME280;31529;51.158;7.354;2023-07-08T01:23:09;98073.34;;;22.57;39.68
45247;BME280;31529;51.158;7.354;2023-07-08T01:23:41;98072.56;;;22.57;39.78
45247;BME280;31529;51.158;7.354;2023-07-08T01:24:12;98078.00;;;22.57;39.89
45247;BME280;31529;51.158;7.354;2023-07-08T01:24:45;98076.88;;;22.58;39.80
45247;BME280;31529;51.158;7.354;2023-07-08T01:25:16;98071.78;;;22.56;39.74
45247;BME280;31529;51.158;7.354;2023-07-08T01:25:48;98079.16;;;22.56;39.89
45247;BME280;31529;51.158;7.354;2023-07-08T01:26:20;98079.16;;;22.56;39.51
45247;BME280;31529;51.158;7.354;2023-07-08T01:26:53;98077.22;;;22.56;39.54
45247;BME280;31529;51.158;7.354;2023-07-08T01:27:25;98076.44;;;22.56;39.65
45247;BME280;31529;51.158;7.354;2023-07-08T01:27:57;98079.16;;;22.56;39.77
45247;BME280;31529;51.158;7.354;2023-07-08T01:28:28;98076.44;;;22.56;39.66
45247;BME280;31529;51.158;7.354;2023-07-08T01:29:01;98074.88;;;22.55;39.53
45247;BME280;31529;51.158;7.354;2023-07-08T01:29:33;98081.06;;;22.55;39.58
45247;BME280;31529;51.158;7.354;2023-07-08T01:30:05;98075.53;;;22.48;39.50
45247;BME280;31529;51.158;7.354;2023-07-08T01:30:37;98077.81;;;22.46;39.73
45247;BME280;31529;51.158;7.354;2023-07-08T01:31:08;98075.47;;;22.45;39.87
45247;BME280;31529;51.158;7.354;2023-07-08T01:31:39;98069.22;;;22.44;39.66
45247;BME280;31529;51.158;7.354;2023-07-08T01:32:11;98077.75;;;22.42;39.69
45247;BME280;31529;51.158;7.354;2023-07-08T01:32:48;98073.44;;;22.41;40.00
45247;BME280;31529;51.158;7.354;2023-07-08T01:33:23;98075.38;;;22.41;39.95
45247;BME280;31529;51.158;7.354;2023-07-08T01:33:54;98076.16;;;22.41;39.62
45247;BME280;31529;51.158;7.354;2023-07-08T01:34:26;98069.16;;;22.40;39.74
45247;BME280;31529;51.158;7.354;2023-07-08T01:34:58;98074.59;;;22.40;39.68
45247;BME280;31529;51.158;7.354;2023-07-08T01:35:31;98076.16;;;22.41;39.62
45247;BME280;31529;51.158;7.354;2023-07-08T01:36:02;98071.50;;;22.42;39.38
45247;BME280;31529;51.158;7.354;2023-07-08T01:36:36;98069.22;;;22.44;39.79
45247;BME280;31529;51.158;7.354;2023-07-08T01:37:13;98067.66;;;22.43;39.83
45247;BME280;31529;51.158;7.354;2023-07-08T01:37:46;98002.72;;;21.99;40.17
45247;BME280;31529;51.158;7.354;2023-07-08T01:38:23;98077.38;;;22.44;39.58
45247;BME280;31529;51.158;7.354;2023-07-08T01:38:57;98075.81;;;22.43;39.93
45247;BME280;31529;51.158;7.354;2023-07-08T01:39:29;98067.66;;;22.43;39.51
45247;BME280;31529;51.158;7.354;2023-07-08T01:40:22;98071.50;;;22.42;39.70
45247;BME280;31529;51.158;7.354;2023-07-08T01:41:00;98073.09;;;22.43;39.68
45247;BME280;31529;51.158;7.354;2023-07-08T01:41:31;98068.44;;;22.44;39.55
45247;BME280;31529;51.158;7.354;2023-07-08T01:42:02;98072.75;;;22.45;39.75
45247;BME280;31529;51.158;7.354;2023-07-08T01:42:33;98066.50;;;22.44;39.73
45247;BME280;31529;51.158;7.354;2023-07-08T01:43:04;98065.34;;;22.45;39.63
45247;BME280;31529;51.158;7.354;2023-07-08T01:43:37;98070.78;;;22.45;39.61
45247;BME280;31529;51.158;7.354;2023-07-08T01:45:07;98070.78;;;22.45;39.49
45247;BME280;31529;51.158;7.354;2023-07-08T01:45:42;98072.38;;;22.46;39.72
45247;BME280;31529;51.158;7.354;2023-07-08T01:46:15;98069.66;;;22.46;39.66
45247;BME280;31529;51.158;7.354;2023-07-08T01:46:51;98066.13;;;22.46;39.42
45247;BME280;31529;51.158;7.354;2023-07-08T01:47:25;98068.50;;;22.47;39.56
45247;BME280;31529;51.158;7.354;2023-07-08T01:47:57;98068.50;;;22.47;39.51
45247;BME280;31529;51.158;7.354;2023-07-08T01:48:33;98060.34;;;22.47;39.45
45247;BME280;31529;51.158;7.354;2023-07-08T01:49:08;98067.38;;;22.48;39.37
45247;BME280;31529;51.158;7.354;2023-07-08T01:49:40;98065.78;;;22.47;39.51
45247;BME280;31529;51.158;7.354;2023-07-08T01:50:13;98060.00;;;22.49;39.62
45247;BME280;31529;51.158;7.354;2023-07-08T01:50:47;98070.88;;;22.49;39.40
45247;BME280;31529;51.158;7.354;2023-07-08T01:51:22;98061.13;;;22.48;39.42
45247;BME280;31529;51.158;7.354;2023-07-08T01:51:54;98067.38;;;22.48;39.27
45247;BME280;31529;51.158;7.354;2023-07-08T01:52:26;98065.44;;;22.49;39.41
45247;BME280;31529;51.158;7.354;2023-07-08T01:52:58;98069.72;;;22.50;39.19
45247;BME280;31529;51.158;7.354;2023-07-08T01:53:33;98067.78;;;22.50;39.23
45247;BME280;31529;51.158;7.354;2023-07-08T01:54:06;98065.50;;;22.52;39.22
45247;BME280;31529;51.158;7.354;2023-07-08T01:54:37;98064.34;;;22.53;39.12
45247;BME280;31529;51.158;7.354;2023-07-08T01:55:08;98069.78;;;22.53;39.24
45247;BME280;31529;51.158;7.354;2023-07-08T01:55:39;98068.78;;;22.61;39.42
45247;BME280;31529;51.158;7.354;2023-07-08T01:56:11;98063.41;;;22.65;39.05
45247;BME280;31529;51.158;7.354;2023-07-08T01:56:43;98068.47;;;22.67;38.91
45247;BME280;31529;51.158;7.354;2023-07-08T01:57:15;98066.16;;;22.69;39.04
45247;BME280;31529;51.158;7.354;2023-07-08T01:57:47;98071.25;;;22.70;39.02
45247;BME280;31529;51.158;7.354;2023-07-08T01:58:18;98068.53;;;22.70;38.90
45247;BME280;31529;51.158;7.354;2023-07-08T01:58:49;98062.31;;;22.70;38.77
45247;BME280;31529;51.158;7.354;2023-07-08T01:59:20;98064.69;;;22.71;38.54
45247;BME280;31529;51.158;7.354;2023-07-08T01:59:51;98068.97;;;22.72;38.72
45247;BME280;31529;51.158;7.354;2023-07-08T02:00:22;98056.16;;;22.73;38.68
45247;BME280;31529;51.158;7.354;2023-07-08T02:00:54;98064.31;;;22.73;38.68
45247;BME280;31529;51.158;7.354;2023-07-08T02:01:25;98063.16;;;22.74;38.89
45247;BME280;31529;51.158;7.354;2023-07-08T02:01:57;98067.47;;;22.75;38.75
45247;BME280;31529;51.158;7.354;2023-07-08T02:02:28;98062.03;;;22.75;38.74
45247;BME280;31529;51.158;7.354;2023-07-08T02:02:59;98062.03;;;22.75;38.78
45247;BME280;31529;51.158;7.354;2023-07-08T02:03:30;98057.38;;;22.75;38.71
45247;BME280;31529;51.158;7.354;2023-07-08T02:04:02;98061.22;;;22.74;38.83
45247;BME280;31529;51.158;7.354;2023-07-08T02:04:33;98057.38;;;22.75;38.75
45247;BME280;31529;51.158;7.354;2023-07-08T02:05:04;98062.75;;;22.72;38.55
45247;BME280;31529;51.158;7.354;2023-07-08T02:05:35;98058.75;;;22.66;38.86
45247;BME280;31529;51.158;7.354;2023-07-08T02:06:08;98061.06;;;22.64;38.80
45247;BME280;31529;51.158;7.354;2023-07-08T02:06:40;98059.47;;;22.63;38.87
45247;BME280;31529;51.158;7.354;2023-07-08T02:07:11;98057.22;;;22.68;38.76
45247;BME280;31529;51.158;7.354;2023-07-08T02:07:42;98056.88;;;22.70;38.92
45247;BME280;31529;51.158;7.354;2023-07-08T02:08:13;98066.78;;;22.58;38.69
45247;BME280;31529;51.158;7.354;2023-07-08T02:08:44;98064.22;;;22.46;39.18
45247;BME280;31529;51.158;7.354;2023-07-08T02:09:15;98062.16;;;22.39;39.21
45247;BME280;31529;51.158;7.354;2023-07-08T02:09:46;98069.09;;;22.37;39.16
45247;BME280;31529;51.158;7.354;2023-07-08T02:10:17;98062.44;;;22.34;39.30
45247;BME280;31529;51.158;7.354;2023-07-08T02:10:49;98057.97;;;22.46;39.18
45247;BME280;31529;51.158;7.354;2023-07-08T02:11:26;98060.78;;;22.49;39.08
45247;BME280;31529;51.158;7.354;2023-07-08T02:12:01;98059.63;;;22.50;38.94
45247;BME280;31529;51.158;7.354;2023-07-08T02:12:32;98058.47;;;22.51;39.22
45247;BME280;31529;51.158;7.354;2023-07-08T02:13:03;98052.25;;;22.51;38.93
45247;BME280;31529;51.158;7.354;2023-07-08T02:13:34;98051.91;;;22.52;38.92
45247;BME280;31529;51.158;7.354;2023-07-08T02:14:05;98060.06;;;22.52;38.87
45247;BME280;31529;51.158;7.354;2023-07-08T02:14:36;98057.34;;;22.52;39.11
45247;BME280;31529;51.158;7.354;2023-07-08T02:15:08;98060.06;;;22.52;38.99
45247;BME280;31529;51.158;7.354;2023-07-08T02:15:40;98049.19;;;22.52;38.99
45247;BME280;31529;51.158;7.354;2023-07-08T02:16:11;98048.38;;;22.52;39.12
45247;BME280;31529;51.158;7.354;2023-07-08T02:16:42;98055.41;;;22.53;38.91
45247;BME280;31529;51.158;7.354;2023-07-08T02:17:13;98049.19;;;22.52;38.91
45247;BME280;31529;51.158;7.354;2023-07-08T02:17:47;98055.41;;;22.53;38.99
45247;BME280;31529;51.158;7.354;2023-07-08T02:18:20;98057.34;;;22.52;38.98
45247;BME280;31529;51.158;7.354;2023-07-08T02:18:51;98055.41;;;22.53;38.84
45247;BME280;31529;51.158;7.354;2023-07-08T02:19:22;98056.19;;;22.53;38.73
45247;BME280;31529;51.158;7.354;2023-07-08T02:19:53;98046.88;;;22.54;38.98
45247;BME280;31529;51.158;7.354;2023-07-08T02:20:24;98052.31;;;22.54;38.90
45247;BME280;31529;51.158;7.354;2023-07-08T02:20:55;98051.56;;;22.54;39.14
45247;BME280;31529;51.158;7.354;2023-07-08T02:21:27;98055.06;;;22.54;38.64
45247;BME280;31529;51.158;7.354;2023-07-08T02:22:01;97978.38;;;22.06;38.74
45247;BME280;31529;51.158;7.354;2023-07-08T02:22:32;98049.25;;;22.56;38.71
45247;BME280;31529;51.158;7.354;2023-07-08T02:23:03;98047.31;;;22.56;38.74
45247;BME280;31529;51.158;7.354;2023-07-08T02:23:35;98045.38;;;22.57;38.66
45247;BME280;31529;51.158;7.354;2023-07-08T02:24:06;98046.97;;;22.58;38.64
45247;BME280;31529;51.158;7.354;2023-07-08T02:24:37;98045.03;;;22.58;38.80
45247;BME280;31529;51.158;7.354;2023-07-08T02:25:08;98041.94;;;22.60;38.61
45247;BME280;31529;51.158;7.354;2023-07-08T02:25:49;98047.03;;;22.61;38.63
45247;BME280;31529;51.158;7.354;2023-07-08T02:26:24;98047.03;;;22.61;38.45
45247;BME280;31529;51.158;7.354;2023-07-08T02:26:55;98045.88;;;22.63;38.58
45247;BME280;31529;51.158;7.354;2023-07-08T02:27:27;98052.88;;;22.64;38.51
45247;BME280;31529;51.158;7.354;2023-07-08T02:27:58;98053.66;;;22.64;38.57
45247;BME280;31529;51.158;7.354;2023-07-08T02:28:29;98043.56;;;22.65;38.53
45247;BME280;31529;51.158;7.354;2023-07-08T02:29:01;98038.13;;;22.65;38.48
45247;BME280;31529;51.158;7.354;2023-07-08T02:29:33;98042.44;;;22.66;38.51
45247;BME280;31529;51.158;7.354;2023-07-08T02:30:04;98048.28;;;22.68;38.51
45247;BME280;31529;51.158;7.354;2023-07-08T02:30:36;98050.25;;;22.67;38.62
45247;BME280;31529;51.158;7.354;2023-07-08T02:31:08;98044.00;;;22.67;38.40
45247;BME280;31529;51.158;7.354;2023-07-08T02:31:39;98046.72;;;22.67;38.42
45247;BME280;31529;51.158;7.354;2023-07-08T02:32:10;98049.06;;;22.68;38.41
45247;BME280;31529;51.158;7.354;2023-07-08T02:32:41;98041.69;;;22.69;38.35
45247;BME280;31529;51.158;7.354;2023-07-08T02:33:13;98044.41;;;22.69;38.32
45247;BME280;31529;51.158;7.354;2023-07-08T02:33:45;98046.00;;;22.70;38.24
45247;BME280;31529;51.158;7.354;2023-07-08T02:34:16;98043.28;;;22.70;38.41
45247;BME280;31529;51.158;7.354;2023-07-08T02:34:47;98044.84;;;22.71;38.52
45247;BME280;31529;51.158;7.354;2023-07-08T02:35:18;98046.41;;;22.72;38.48
45247;BME280;31529;51.158;7.354;2023-07-08T02:35:49;98043.69;;;22.72;38.44
45247;BME280;31529;51.158;7.354;2023-07-08T02:36:21;98046.41;;;22.72;38.45
45247;BME280;31529;51.158;7.354;2023-07-08T02:36:52;98044.84;;;22.71;38.55
45247;BME280;31529;51.158;7.354;2023-07-08T02:37:23;98048.38;;;22.71;38.19
45247;BME280;31529;51.158;7.354;2023-07-08T02:37:54;98047.19;;;22.72;38.38
45247;BME280;31529;51.158;7.354;2023-07-08T02:38:26;98050.28;;;22.71;38.47
45247;BME280;31529;51.158;7.354;2023-07-08T02:38:57;98042.91;;;22.71;38.10
45247;BME280;31529;51.158;7.354;2023-07-08T02:39:31;98044.06;;;22.70;38.46
45247;BME280;31529;51.158;7.354;2023-07-08T02:40:02;98044.84;;;22.71;38.33
45247;BME280;31529;51.158;7.354;2023-07-08T02:40:33;98044.84;;;22.71;38.48
45247;BME280;31529;51.158;7.354;2023-07-08T02:41:04;98041.34;;;22.70;38.22
45247;BME280;31529;51.158;7.354;2023-07-08T02:41:35;98040.56;;;22.70;38.02
45247;BME280;31529;51.158;7.354;2023-07-08T02:42:07;98044.84;;;22.71;38.07
45247;BME280;31529;51.158;7.354;2023-07-08T02:42:38;98041.75;;;22.72;38.11
45247;BME280;31529;51.158;7.354;2023-07-08T02:43:09;98041.75;;;22.72;38.02
45247;BME280;31529;51.158;7.354;2023-07-08T02:43:40;98041.41;;;22.74;38.29
45247;BME280;31529;51.158;7.354;2023-07-08T02:44:11;98045.72;;;22.75;38.23
45247;BME280;31529;51.158;7.354;2023-07-08T02:44:42;98037.16;;;22.76;38.29
45247;BME280;31529;51.158;7.354;2023-07-08T02:45:13;98035.59;;;22.75;38.36
45247;BME280;31529;51.158;7.354;2023-07-08T02:45:44;98036.38;;;22.76;38.10
45247;BME280;31529;51.158;7.354;2023-07-08T02:46:19;98041.03;;;22.75;38.29
45247;BME280;31529;51.158;7.354;2023-07-08T02:46:50;98047.25;;;22.76;38.09
45247;BME280;31529;51.158;7.354;2023-07-08T02:47:21;98035.97;;;22.74;38.31
45247;BME280;31529;51.158;7.354;2023-07-08T02:47:52;98042.19;;;22.74;38.05
45247;BME280;31529;51.158;7.354;2023-07-08T02:48:23;98034.41;;;22.73;38.51
45247;BME280;31529;51.158;7.354;2023-07-08T02:48:55;98037.91;;;22.73;38.23
45247;BME280;31529;51.158;7.354;2023-07-08T02:49:26;98040.63;;;22.73;38.20
45247;BME280;31529;51.158;7.354;2023-07-08T02:49:57;98038.69;;;22.74;38.31
45247;BME280;31529;51.158;7.354;2023-07-08T02:50:28;98034.41;;;22.73;38.38
45247;BME280;31529;51.158;7.354;2023-07-08T02:50:59;98037.91;;;22.73;38.13
45247;BME280;31529;51.158;7.354;2023-07-08T02:51:34;98038.69;;;22.74;38.13
45247;BME280;31529;51.158;7.354;2023-07-08T02:52:05;98037.13;;;22.73;38.18
45247;BME280;31529;51.158;7.354;2023-07-08T02:52:37;98037.13;;;22.73;38.34
45247;BME280;31529;51.158;7.354;2023-07-08T02:53:08;98042.56;;;22.73;38.24
45247;BME280;31529;51.158;7.354;2023-07-08T02:53:39;98036.31;;;22.72;37.93
45247;BME280;31529;51.158;7.354;2023-07-08T02:54:10;98039.84;;;22.73;38.12
45247;BME280;31529;51.158;7.354;2023-07-08T02:54:41;98037.13;;;22.73;38.09
45247;BME280;31529;51.158;7.354;2023-07-08T02:55:12;98040.28;;;22.75;38.05
45247;BME280;31529;51.158;7.354;2023-07-08T02:55:43;98046.50;;;22.75;38.06
45247;BME280;31529;51.158;7.354;2023-07-08T02:56:14;98042.59;;;22.76;38.18
45247;BME280;31529;51.158;7.354;2023-07-08T02:56:45;98044.53;;;22.76;37.94
45247;BME280;31529;51.158;7.354;2023-07-08T02:57:17;98038.41;;;22.79;37.89
45247;BME280;31529;51.158;7.354;2023-07-08T02:57:48;98044.97;;;22.78;38.07